Terminal Aerodrome Forecast
Issued by NWS Sioux Falls, SD

Home | Current Version | Previous Version | Graphics & Text | Print | Product List | Glossary Off
Versions: 1 2 3 4 5 6 7 8 9 10 11 12 13 14

000
FTUS43 KFSD 191951 AAA
TAFSUX
TAF AMD
KSUX 191951Z 1920/2018 31013G23KT P6SM SCT050
     FM200100 33006KT P6SM SKC
     FM200400 VRB03KT P6SM SKC
     FM201400 29007KT P6SM FEW200=

USA.gov is the U.S. government's official web portal to all federal, state and local government web resources and services.